sensor_id;sensor_type;location;lat;lon;timestamp;pressure;altitude;pressure_sealevel;temperature;humidity
16451;BME280;12243;42.708;23.310;2023-11-18T00:01:34;94334.50;;;6.65;100.00
16451;BME280;12243;42.708;23.310;2023-11-18T00:04:01;94324.72;;;6.69;100.00
16451;BME280;12243;42.708;23.310;2023-11-18T00:06:29;94328.41;;;6.66;100.00
16451;BME280;12243;42.708;23.310;2023-11-18T00:08:56;94330.53;;;6.50;100.00
16451;BME280;12243;42.708;23.310;2023-11-18T00:11:26;94337.13;;;6.54;100.00
16451;BME280;12243;42.708;23.310;2023-11-18T00:13:53;94326.31;;;6.49;100.00
16451;BME280;12243;42.708;23.310;2023-11-18T00:16:21;94333.72;;;6.42;100.00
16451;BME280;12243;42.708;23.310;2023-11-18T00:18:49;94343.50;;;6.28;100.00
16451;BME280;12243;42.708;23.310;2023-11-18T00:21:15;94353.28;;;6.24;100.00
16451;BME280;12243;42.708;23.310;2023-11-18T00:23:44;94374.88;;;6.23;100.00
16451;BME280;12243;42.708;23.310;2023-11-18T00:26:12;94355.97;;;6.23;100.00
16451;BME280;12243;42.708;23.310;2023-11-18T00:28:41;94346.78;;;6.18;100.00
16451;BME280;12243;42.708;23.310;2023-11-18T00:31:09;94323.31;;;6.10;100.00
16451;BME280;12243;42.708;23.310;2023-11-18T00:33:35;94318.72;;;6.03;100.00
16451;BME280;12243;42.708;23.310;2023-11-18T00:36:03;94324.47;;;5.95;100.00
16451;BME280;12243;42.708;23.310;2023-11-18T00:38:30;94335.97;;;6.02;100.00
16451;BME280;12243;42.708;23.310;2023-11-18T00:40:59;94318.47;;;6.06;100.00
16451;BME280;12243;42.708;23.310;2023-11-18T00:43:26;94332.22;;;6.06;100.00
16451;BME280;12243;42.708;23.310;2023-11-18T00:45:53;94330.59;;;6.05;100.00
16451;BME280;12243;42.708;23.310;2023-11-18T00:48:20;94330.00;;;6.02;100.00
16451;BME280;12243;42.708;23.310;2023-11-18T00:50:47;94332.22;;;6.06;100.00
16451;BME280;12243;42.708;23.310;2023-11-18T00:53:14;94336.44;;;5.96;100.00
16451;BME280;12243;42.708;23.310;2023-11-18T00:55:41;94351.47;;;5.91;100.00
16451;BME280;12243;42.708;23.310;2023-11-18T00:58:09;94339.44;;;5.79;100.00
16451;BME280;12243;42.708;23.310;2023-11-18T01:00:36;94337.81;;;5.78;100.00
16451;BME280;12243;42.708;23.310;2023-11-18T01:03:03;94344.66;;;5.90;100.00
16451;BME280;12243;42.708;23.310;2023-11-18T01:05:30;94347.09;;;5.80;100.00
16451;BME280;12243;42.708;23.310;2023-11-18T01:07:58;94349.47;;;5.83;100.00
16451;BME280;12243;42.708;23.310;2023-11-18T01:10:25;94349.56;;;5.82;100.00
16451;BME280;12243;42.708;23.310;2023-11-18T01:12:52;94353.91;;;5.81;100.00
16451;BME280;12243;42.708;23.310;2023-11-18T01:15:23;94352.63;;;5.87;100.00
16451;BME280;12243;42.708;23.310;2023-11-18T01:17:49;94361.44;;;5.84;100.00
16451;BME280;12243;42.708;23.310;2023-11-18T01:20:16;94369.34;;;5.94;100.00
16451;BME280;12243;42.708;23.310;2023-11-18T01:22:47;94363.94;;;5.97;100.00
16451;BME280;12243;42.708;23.310;2023-11-18T01:25:14;94367.72;;;5.93;100.00
16451;BME280;12243;42.708;23.310;2023-11-18T01:27:43;94368.38;;;5.84;100.00
16451;BME280;12243;42.708;23.310;2023-11-18T01:30:12;94366.47;;;5.74;100.00
16451;BME280;12243;42.708;23.310;2023-11-18T01:32:41;94362.97;;;5.87;100.00
16451;BME280;12243;42.708;23.310;2023-11-18T01:35:08;94356.84;;;5.77;100.00
16451;BME280;12243;42.708;23.310;2023-11-18T01:37:38;94364.38;;;5.68;100.00
16451;BME280;12243;42.708;23.310;2023-11-18T01:40:06;94362.22;;;5.51;100.00
16451;BME280;12243;42.708;23.310;2023-11-18T01:42:33;94365.13;;;5.58;100.00
16451;BME280;12243;42.708;23.310;2023-11-18T01:45:00;94368.41;;;5.48;100.00
16451;BME280;12243;42.708;23.310;2023-11-18T01:47:29;94373.00;;;5.45;100.00
16451;BME280;12243;42.708;23.310;2023-11-18T01:50:00;94361.03;;;5.44;100.00
16451;BME280;12243;42.708;23.310;2023-11-18T01:52:28;94369.69;;;5.43;100.00
16451;BME280;12243;42.708;23.310;2023-11-18T01:54:56;94349.00;;;5.32;100.00
16451;BME280;12243;42.708;23.310;2023-11-18T01:57:23;94351.00;;;5.39;100.00
16451;BME280;12243;42.708;23.310;2023-11-18T01:59:52;94356.72;;;5.20;100.00
16451;BME280;12243;42.708;23.310;2023-11-18T02:02:20;94353.25;;;5.09;100.00
16451;BME280;12243;42.708;23.310;2023-11-18T02:04:47;94370.94;;;5.02;100.00
16451;BME280;12243;42.708;23.310;2023-11-18T02:07:16;94366.28;;;5.07;100.00
16451;BME280;12243;42.708;23.310;2023-11-18T02:09:44;94372.09;;;4.98;100.00
16451;BME280;12243;42.708;23.310;2023-11-18T02:12:28;94363.75;;;4.94;100.00
16451;BME280;12243;42.708;23.310;2023-11-18T02:14:57;94379.63;;;5.01;100.00
16451;BME280;12243;42.708;23.310;2023-11-18T02:17:27;94378.63;;;4.91;100.00
16451;BME280;12243;42.708;23.310;2023-11-18T02:19:56;94377.00;;;4.90;100.00
16451;BME280;12243;42.708;23.310;2023-11-18T02:22:25;94373.00;;;4.86;100.00
16451;BME280;12243;42.708;23.310;2023-11-18T02:24:53;94381.97;;;4.80;100.00
16451;BME280;12243;42.708;23.310;2023-11-18T02:27:22;94376.72;;;4.82;100.00
16451;BME280;12243;42.708;23.310;2023-11-18T02:29:52;94375.19;;;4.79;100.00
16451;BME280;12243;42.708;23.310;2023-11-18T02:32:25;94365.91;;;4.76;100.00
16451;BME280;12243;42.708;23.310;2023-11-18T02:35:00;94364.94;;;4.77;100.00
16451;BME280;12243;42.708;23.310;2023-11-18T02:37:32;94362.38;;;4.77;100.00
16451;BME280;12243;42.708;23.310;2023-11-18T02:40:03;94367.03;;;4.72;100.00
16451;BME280;12243;42.708;23.310;2023-11-18T02:42:35;94387.63;;;4.61;100.00
16451;BME280;12243;42.708;23.310;2023-11-18T02:45:06;94399.78;;;4.59;100.00
16451;BME280;12243;42.708;23.310;2023-11-18T02:47:34;94386.81;;;4.48;100.00
16451;BME280;12243;42.708;23.310;2023-11-18T02:49:59;94405.19;;;4.43;100.00
16451;BME280;12243;42.708;23.310;2023-11-18T02:52:32;94405.94;;;4.33;100.00
16451;BME280;12243;42.708;23.310;2023-11-18T02:54:59;94411.19;;;4.31;100.00
16451;BME280;12243;42.708;23.310;2023-11-18T02:57:26;94399.84;;;4.34;100.00
16451;BME280;12243;42.708;23.310;2023-11-18T02:59:55;94401.50;;;4.35;100.00
16451;BME280;12243;42.708;23.310;2023-11-18T03:02:23;94399.66;;;4.24;100.00
16451;BME280;12243;42.708;23.310;2023-11-18T03:04:53;94390.28;;;4.10;100.00
16451;BME280;12243;42.708;23.310;2023-11-18T03:07:19;94411.44;;;4.15;100.00
16451;BME280;12243;42.708;23.310;2023-11-18T03:09:46;94412.03;;;4.19;100.00
16451;BME280;12243;42.708;23.310;2023-11-18T03:12:13;94406.56;;;4.11;100.00
16451;BME280;12243;42.708;23.310;2023-11-18T03:14:41;94399.91;;;4.08;100.00
16451;BME280;12243;42.708;23.310;2023-11-18T03:17:10;94407.31;;;4.13;100.00
16451;BME280;12243;42.708;23.310;2023-11-18T03:19:37;94406.47;;;4.12;100.00
16451;BME280;12243;42.708;23.310;2023-11-18T03:22:04;94416.59;;;4.15;100.00
16451;BME280;12243;42.708;23.310;2023-11-18T03:24:31;94421.53;;;4.05;100.00
16451;BME280;12243;42.708;23.310;2023-11-18T03:26:58;94413.19;;;4.02;100.00
16451;BME280;12243;42.708;23.310;2023-11-18T03:29:26;94421.03;;;3.88;100.00
16451;BME280;12243;42.708;23.310;2023-11-18T03:31:53;94430.19;;;3.92;100.00
16451;BME280;12243;42.708;23.310;2023-11-18T03:34:21;94409.56;;;3.79;100.00
16451;BME280;12243;42.708;23.310;2023-11-18T03:36:48;94420.69;;;3.79;100.00
16451;BME280;12243;42.708;23.310;2023-11-18T03:39:16;94426.38;;;3.85;100.00
16451;BME280;12243;42.708;23.310;2023-11-18T03:41:43;94416.34;;;3.80;100.00
16451;BME280;12243;42.708;23.310;2023-11-18T03:44:11;94423.47;;;3.64;100.00
16451;BME280;12243;42.708;23.310;2023-11-18T03:46:39;94426.66;;;3.67;100.00
16451;BME280;12243;42.708;23.310;2023-11-18T03:49:06;94429.63;;;3.61;100.00
16451;BME280;12243;42.708;23.310;2023-11-18T03:51:35;94429.13;;;3.56;100.00
16451;BME280;12243;42.708;23.310;2023-11-18T03:54:02;94447.63;;;3.48;100.00
16451;BME280;12243;42.708;23.310;2023-11-18T03:56:29;94425.81;;;3.54;100.00
16451;BME280;12243;42.708;23.310;2023-11-18T03:58:56;94410.44;;;3.40;100.00
16451;BME280;12243;42.708;23.310;2023-11-18T04:01:24;94412.81;;;3.43;100.00
16451;BME280;12243;42.708;23.310;2023-11-18T04:03:53;94420.81;;;3.38;100.00
16451;BME280;12243;42.708;23.310;2023-11-18T04:06:20;94448.88;;;3.43;100.00
16451;BME280;12243;42.708;23.310;2023-11-18T04:08:49;94441.22;;;3.41;100.00
16451;BME280;12243;42.708;23.310;2023-11-18T04:11:17;94441.56;;;3.49;100.00
16451;BME280;12243;42.708;23.310;2023-11-18T04:13:44;94438.81;;;3.52;99.97
16451;BME280;12243;42.708;23.310;2023-11-18T04:16:11;94487.59;;;3.54;99.58
16451;BME280;12243;42.708;23.310;2023-11-18T04:18:39;94447.94;;;3.44;99.42
16451;BME280;12243;42.708;23.310;2023-11-18T04:21:07;94431.34;;;3.48;99.55
16451;BME280;12243;42.708;23.310;2023-11-18T04:23:34;94444.78;;;3.53;99.27
16451;BME280;12243;42.708;23.310;2023-11-18T04:26:04;94442.00;;;3.56;98.98
16451;BME280;12243;42.708;23.310;2023-11-18T04:28:31;94446.59;;;3.51;99.05
16451;BME280;12243;42.708;23.310;2023-11-18T04:30:58;94448.25;;;3.52;99.09
16451;BME280;12243;42.708;23.310;2023-11-18T04:33:26;94452.88;;;3.47;98.68
16451;BME280;12243;42.708;23.310;2023-11-18T04:35:54;94472.91;;;3.56;98.93
16451;BME280;12243;42.708;23.310;2023-11-18T04:38:23;94446.19;;;3.44;99.11
16451;BME280;12243;42.708;23.310;2023-11-18T04:40:50;94459.66;;;3.48;98.91
16451;BME280;12243;42.708;23.310;2023-11-18T04:43:20;94442.72;;;3.58;98.64
16451;BME280;12243;42.708;23.310;2023-11-18T04:45:47;94459.59;;;3.49;98.85
16451;BME280;12243;42.708;23.310;2023-11-18T04:48:15;94456.38;;;3.46;98.18
16451;BME280;12243;42.708;23.310;2023-11-18T04:50:42;94467.00;;;3.54;98.38
16451;BME280;12243;42.708;23.310;2023-11-18T04:53:09;94465.75;;;3.47;98.34
16451;BME280;12243;42.708;23.310;2023-11-18T04:55:37;94469.66;;;3.40;98.65
16451;BME280;12243;42.708;23.310;2023-11-18T04:58:04;94457.72;;;3.39;98.15
16451;BME280;12243;42.708;23.310;2023-11-18T05:00:34;94465.50;;;3.37;98.49
16451;BME280;12243;42.708;23.310;2023-11-18T05:03:03;94465.50;;;3.37;98.78
16451;BME280;12243;42.708;23.310;2023-11-18T05:05:30;94465.31;;;3.40;98.14
16451;BME280;12243;42.708;23.310;2023-11-18T05:07:57;94456.84;;;3.38;97.84
16451;BME280;12243;42.708;23.310;2023-11-18T05:10:24;94450.19;;;3.36;97.80
16451;BME280;12243;42.708;23.310;2023-11-18T05:12:51;94452.22;;;3.30;98.03
16451;BME280;12243;42.708;23.310;2023-11-18T05:15:22;94449.19;;;3.24;98.33
16451;BME280;12243;42.708;23.310;2023-11-18T05:17:52;94445.03;;;3.36;98.53
16451;BME280;12243;42.708;23.310;2023-11-18T05:20:20;94434.81;;;3.34;97.45
16451;BME280;12243;42.708;23.310;2023-11-18T05:22:47;94437.91;;;3.26;96.53
16451;BME280;12243;42.708;23.310;2023-11-18T05:25:17;94442.72;;;3.18;96.42
16451;BME280;12243;42.708;23.310;2023-11-18T05:27:44;94437.38;;;3.21;97.33
16451;BME280;12243;42.708;23.310;2023-11-18T05:30:12;94440.16;;;3.18;97.29
16451;BME280;12243;42.708;23.310;2023-11-18T05:32:40;94427.78;;;3.23;97.06
16451;BME280;12243;42.708;23.310;2023-11-18T05:35:08;94431.13;;;3.25;97.14
16451;BME280;12243;42.708;23.310;2023-11-18T05:37:37;94426.34;;;3.19;96.90
16451;BME280;12243;42.708;23.310;2023-11-18T05:40:07;94438.69;;;3.14;97.06
16451;BME280;12243;42.708;23.310;2023-11-18T05:42:36;94434.88;;;3.07;97.16
16451;BME280;12243;42.708;23.310;2023-11-18T05:45:04;94448.44;;;3.09;97.36
16451;BME280;12243;42.708;23.310;2023-11-18T05:47:32;94452.19;;;3.18;97.32
16451;BME280;12243;42.708;23.310;2023-11-18T05:49:59;94453.59;;;3.09;97.76
16451;BME280;12243;42.708;23.310;2023-11-18T05:52:28;94460.66;;;3.05;97.87
16451;BME280;12243;42.708;23.310;2023-11-18T05:54:54;94473.03;;;3.13;98.32
16451;BME280;12243;42.708;23.310;2023-11-18T05:57:21;94464.19;;;3.17;97.66
16451;BME280;12243;42.708;23.310;2023-11-18T05:59:48;94460.81;;;3.17;97.61
16451;BME280;12243;42.708;23.310;2023-11-18T06:02:15;94467.13;;;3.25;97.42
16451;BME280;12243;42.708;23.310;2023-11-18T06:04:44;94463.50;;;3.15;97.47
16451;BME280;12243;42.708;23.310;2023-11-18T06:07:11;94478.63;;;3.20;97.67
16451;BME280;12243;42.708;23.310;2023-11-18T06:09:41;94468.81;;;3.12;98.08
16451;BME280;12243;42.708;23.310;2023-11-18T06:12:08;94471.88;;;3.04;99.87
16451;BME280;12243;42.708;23.310;2023-11-18T06:14:36;94477.13;;;3.03;100.00
16451;BME280;12243;42.708;23.310;2023-11-18T06:17:03;94489.78;;;3.06;100.00
16451;BME280;12243;42.708;23.310;2023-11-18T06:19:33;94476.25;;;2.90;100.00
16451;BME280;12243;42.708;23.310;2023-11-18T06:22:00;94471.97;;;3.03;100.00
16451;BME280;12243;42.708;23.310;2023-11-18T06:24:26;94482.44;;;3.00;100.00
16451;BME280;12243;42.708;23.310;2023-11-18T06:26:55;94471.78;;;3.06;100.00
16451;BME280;12243;42.708;23.310;2023-11-18T06:29:23;94481.06;;;3.08;99.63
16451;BME280;12243;42.708;23.310;2023-11-18T06:31:50;94479.13;;;3.12;98.80
16451;BME280;12243;42.708;23.310;2023-11-18T06:34:17;94471.22;;;3.15;98.67
16451;BME280;12243;42.708;23.310;2023-11-18T06:36:46;94472.28;;;3.25;98.35
16451;BME280;12243;42.708;23.310;2023-11-18T06:39:13;94466.25;;;3.12;97.28
16451;BME280;12243;42.708;23.310;2023-11-18T06:41:41;94469.16;;;3.20;97.21
16451;BME280;12243;42.708;23.310;2023-11-18T06:44:15;94480.72;;;3.27;96.70
16451;BME280;12243;42.708;23.310;2023-11-18T06:46:43;94490.44;;;3.37;96.48
16451;BME280;12243;42.708;23.310;2023-11-18T06:49:10;94481.97;;;3.34;95.92
16451;BME280;12243;42.708;23.310;2023-11-18T06:51:41;94493.19;;;3.33;95.43
16451;BME280;12243;42.708;23.310;2023-11-18T06:54:08;94486.53;;;3.44;95.38
16451;BME280;12243;42.708;23.310;2023-11-18T06:56:36;94503.44;;;3.48;95.28
16451;BME280;12243;42.708;23.310;2023-11-18T06:59:04;94492.31;;;3.47;95.48
16451;BME280;12243;42.708;23.310;2023-11-18T07:01:34;94504.81;;;3.53;94.80
16451;BME280;12243;42.708;23.310;2023-11-18T07:04:01;94507.75;;;3.47;95.20
16451;BME280;12243;42.708;23.310;2023-11-18T07:06:28;94494.69;;;3.50;95.16
16451;BME280;12243;42.708;23.310;2023-11-18T07:08:56;94498.03;;;3.65;94.38
16451;BME280;12243;42.708;23.310;2023-11-18T07:11:26;94503.25;;;3.51;95.06
16451;BME280;12243;42.708;23.310;2023-11-18T07:13:53;94498.59;;;3.43;94.53
16451;BME280;12243;42.708;23.310;2023-11-18T07:16:23;94500.59;;;3.52;94.90
16451;BME280;12243;42.708;23.310;2023-11-18T07:18:52;94497.22;;;3.38;94.87
16451;BME280;12243;42.708;23.310;2023-11-18T07:21:19;94510.19;;;3.36;96.16
16451;BME280;12243;42.708;23.310;2023-11-18T07:23:46;94503.59;;;3.32;95.82
16451;BME280;12243;42.708;23.310;2023-11-18T07:26:13;94502.97;;;3.28;95.92
16451;BME280;12243;42.708;23.310;2023-11-18T07:28:40;94511.94;;;3.36;96.12
16451;BME280;12243;42.708;23.310;2023-11-18T07:31:09;94510.06;;;3.25;96.24
16451;BME280;12243;42.708;23.310;2023-11-18T07:33:36;94507.22;;;3.15;95.95
16451;BME280;12243;42.708;23.310;2023-11-18T07:36:05;94508.69;;;3.19;96.84
16451;BME280;12243;42.708;23.310;2023-11-18T07:38:36;94518.97;;;3.19;96.86
16451;BME280;12243;42.708;23.310;2023-11-18T07:41:04;94519.72;;;3.21;96.78
16451;BME280;12243;42.708;23.310;2023-11-18T07:43:33;94525.25;;;3.15;96.68
16451;BME280;12243;42.708;23.310;2023-11-18T07:46:02;94519.34;;;3.13;96.44
16451;BME280;12243;42.708;23.310;2023-11-18T07:48:31;94507.22;;;3.15;96.63
16451;BME280;12243;42.708;23.310;2023-11-18T07:50:59;94510.31;;;3.20;96.18
16451;BME280;12243;42.708;23.310;2023-11-18T07:53:27;94506.84;;;3.21;95.97
16451;BME280;12243;42.708;23.310;2023-11-18T07:55:55;94506.44;;;3.27;96.06
16451;BME280;12243;42.708;23.310;2023-11-18T07:58:22;94490.81;;;3.30;95.92
16451;BME280;12243;42.708;23.310;2023-11-18T08:00:51;94505.63;;;3.27;95.56
16451;BME280;12243;42.708;23.310;2023-11-18T08:03:19;94516.53;;;3.30;95.74
16451;BME280;12243;42.708;23.310;2023-11-18T08:05:46;94502.91;;;3.43;94.93
16451;BME280;12243;42.708;23.310;2023-11-18T08:08:16;94507.50;;;3.38;94.85
16451;BME280;12243;42.708;23.310;2023-11-18T08:10:45;94502.91;;;3.43;93.79
16451;BME280;12243;42.708;23.310;2023-11-18T08:13:13;94505.69;;;3.40;94.23
16451;BME280;12243;42.708;23.310;2023-11-18T08:15:42;94520.06;;;3.29;94.13
16451;BME280;12243;42.708;23.310;2023-11-18T08:18:11;94515.66;;;3.31;94.08
16451;BME280;12243;42.708;23.310;2023-11-18T08:20:38;94525.00;;;3.32;94.51
16451;BME280;12243;42.708;23.310;2023-11-18T08:23:07;94537.69;;;3.36;94.13
16451;BME280;12243;42.708;23.310;2023-11-18T08:25:34;94550.94;;;3.29;93.97
16451;BME280;12243;42.708;23.310;2023-11-18T08:28:06;94535.50;;;3.29;95.20
16451;BME280;12243;42.708;23.310;2023-11-18T08:30:34;94539.44;;;3.35;94.25
16451;BME280;12243;42.708;23.310;2023-11-18T08:33:01;94520.06;;;3.29;93.51
16451;BME280;12243;42.708;23.310;2023-11-18T08:35:30;94537.31;;;3.27;94.55
16451;BME280;12243;42.708;23.310;2023-11-18T08:37:57;94576.28;;;3.36;94.59
16451;BME280;12243;42.708;23.310;2023-11-18T08:40:26;94556.06;;;3.29;94.24
16451;BME280;12243;42.708;23.310;2023-11-18T08:42:53;94556.25;;;3.26;94.55
16451;BME280;12243;42.708;23.310;2023-11-18T08:45:24;94555.88;;;3.32;93.70
16451;BME280;12243;42.708;23.310;2023-11-18T08:47:53;94554.78;;;3.37;93.84
16451;BME280;12243;42.708;23.310;2023-11-18T08:50:21;94561.22;;;3.29;93.82
16451;BME280;12243;42.708;23.310;2023-11-18T08:52:50;94544.13;;;3.28;94.02
16451;BME280;12243;42.708;23.310;2023-11-18T08:55:23;94545.59;;;3.32;94.41
16451;BME280;12243;42.708;23.310;2023-11-18T08:58:04;94552.97;;;3.10;94.88
16451;BME280;12243;42.708;23.310;2023-11-18T09:00:43;94555.56;;;3.24;95.40
16451;BME280;12243;42.708;23.310;2023-11-18T09:03:14;94549.28;;;3.28;94.88
16451;BME280;12243;42.708;23.310;2023-11-18T09:05:50;94556.25;;;3.26;94.84
16451;BME280;12243;42.708;23.310;2023-11-18T09:08:27;94549.47;;;3.25;95.53
16451;BME280;12243;42.708;23.310;2023-11-18T09:10:55;94544.34;;;3.25;95.30
16451;BME280;12243;42.708;23.310;2023-11-18T09:13:24;94544.34;;;3.25;94.64
16451;BME280;12243;42.708;23.310;2023-11-18T09:15:56;94536.59;;;3.25;94.50
16451;BME280;12243;42.708;23.310;2023-11-18T09:18:23;94556.63;;;3.20;94.58
16451;BME280;12243;42.708;23.310;2023-11-18T09:20:51;94551.50;;;3.20;94.29
16451;BME280;12243;42.708;23.310;2023-11-18T09:23:22;94530.34;;;3.29;94.41
16451;BME280;12243;42.708;23.310;2023-11-18T09:25:51;94536.75;;;3.37;94.25
16451;BME280;12243;42.708;23.310;2023-11-18T09:28:19;94541.28;;;3.33;93.27
16451;BME280;12243;42.708;23.310;2023-11-18T09:30:46;94538.06;;;3.29;93.90
16451;BME280;12243;42.708;23.310;2023-11-18T09:33:20;94534.91;;;3.39;93.49
16451;BME280;12243;42.708;23.310;2023-11-18T09:35:58;94538.41;;;3.38;93.35
16451;BME280;12243;42.708;23.310;2023-11-18T09:38:28;94543.53;;;3.38;93.35
16451;BME280;12243;42.708;23.310;2023-11-18T09:40:56;94528.03;;;3.39;93.08
16451;BME280;12243;42.708;23.310;2023-11-18T09:43:26;94553.28;;;3.47;93.64
16451;BME280;12243;42.708;23.310;2023-11-18T09:46:04;94523.41;;;3.44;92.96
16451;BME280;12243;42.708;23.310;2023-11-18T09:48:35;94555.28;;;3.42;92.66
16451;BME280;12243;42.708;23.310;2023-11-18T09:51:07;94524.03;;;3.48;92.29
16451;BME280;12243;42.708;23.310;2023-11-18T09:53:37;94541.56;;;3.55;91.89
16451;BME280;12243;42.708;23.310;2023-11-18T09:56:10;94533.69;;;3.44;91.42
16451;BME280;12243;42.708;23.310;2023-11-18T09:58:51;94530.78;;;3.36;92.49
16451;BME280;12243;42.708;23.310;2023-11-18T10:01:26;94506.31;;;3.43;92.69
16451;BME280;12243;42.708;23.310;2023-11-18T10:03:59;94511.91;;;3.50;92.24
16451;BME280;12243;42.708;23.310;2023-11-18T10:06:34;94501.06;;;3.45;92.09
16451;BME280;12243;42.708;23.310;2023-11-18T10:09:02;94494.50;;;3.53;92.44
16451;BME280;12243;42.708;23.310;2023-11-18T10:11:41;94496.09;;;3.42;92.69
16451;BME280;12243;42.708;23.310;2023-11-18T10:14:08;94501.78;;;3.47;92.64
16451;BME280;12243;42.708;23.310;2023-11-18T10:16:36;94511.50;;;3.56;92.09
16451;BME280;12243;42.708;23.310;2023-11-18T10:19:05;94516.25;;;3.62;91.91
16451;BME280;12243;42.708;23.310;2023-11-18T10:21:35;94515.41;;;3.62;91.37
16451;BME280;12243;42.708;23.310;2023-11-18T10:24:06;94519.22;;;3.56;91.46
16451;BME280;12243;42.708;23.310;2023-11-18T10:26:41;94511.59;;;3.54;91.51
16451;BME280;12243;42.708;23.310;2023-11-18T10:29:10;94527.09;;;3.67;90.47
16451;BME280;12243;42.708;23.310;2023-11-18T10:31:38;94521.59;;;3.59;90.65
16451;BME280;12243;42.708;23.310;2023-11-18T10:34:13;94516.84;;;3.53;90.53
16451;BME280;12243;42.708;23.310;2023-11-18T10:36:41;94548.31;;;3.44;90.43
16451;BME280;12243;42.708;23.310;2023-11-18T10:39:13;94522.56;;;3.44;91.32
16451;BME280;12243;42.708;23.310;2023-11-18T10:41:42;94530.63;;;3.52;90.52
16451;BME280;12243;42.708;23.310;2023-11-18T10:44:13;94522.06;;;3.39;91.53
16451;BME280;12243;42.708;23.310;2023-11-18T10:46:41;94534.63;;;3.43;91.78
16451;BME280;12243;42.708;23.310;2023-11-18T10:49:08;94514.97;;;3.42;90.93
16451;BME280;12243;42.708;23.310;2023-11-18T10:51:36;94528.28;;;3.34;90.61
16451;BME280;12243;42.708;23.310;2023-11-18T10:54:06;94519.47;;;3.39;90.78
16451;BME280;12243;42.708;23.310;2023-11-18T10:56:46;94525.69;;;3.22;91.48
16451;BME280;12243;42.708;23.310;2023-11-18T10:59:13;94529.38;;;3.18;92.03
16451;BME280;12243;42.708;23.310;2023-11-18T11:01:42;94522.28;;;3.21;92.08
16451;BME280;12243;42.708;23.310;2023-11-18T11:04:10;94515.28;;;3.23;92.76
16451;BME280;12243;42.708;23.310;2023-11-18T11:06:41;94518.41;;;3.28;92.14
16451;BME280;12243;42.708;23.310;2023-11-18T11:09:08;94515.97;;;3.40;92.00
16451;BME280;12243;42.708;23.310;2023-11-18T11:11:48;94523.44;;;3.30;92.38
16451;BME280;12243;42.708;23.310;2023-11-18T11:14:17;94517.78;;;3.25;92.40
16451;BME280;12243;42.708;23.310;2023-11-18T11:16:52;94515.97;;;3.40;93.31
16451;BME280;12243;42.708;23.310;2023-11-18T11:19:24;94515.41;;;3.49;92.31
16451;BME280;12243;42.708;23.310;2023-11-18T11:22:03;94523.31;;;3.46;91.17
16451;BME280;12243;42.708;23.310;2023-11-18T11:24:40;94517.44;;;3.44;91.87
16451;BME280;12243;42.708;23.310;2023-11-18T11:27:22;94522.56;;;3.44;91.63
16451;BME280;12243;42.708;23.310;2023-11-18T11:29:59;94537.09;;;3.45;91.75
16451;BME280;12243;42.708;23.310;2023-11-18T11:32:39;94510.44;;;3.46;91.50
16451;BME280;12243;42.708;23.310;2023-11-18T11:35:18;94517.47;;;3.56;90.34
16451;BME280;12243;42.708;23.310;2023-11-18T11:37:48;94512.34;;;3.56;91.05
16451;BME280;12243;42.708;23.310;2023-11-18T11:40:16;94510.13;;;3.50;90.87
16451;BME280;12243;42.708;23.310;2023-11-18T11:42:50;94512.53;;;3.53;91.33
16451;BME280;12243;42.708;23.310;2023-11-18T11:45:22;94513.59;;;3.64;90.99
16451;BME280;12243;42.708;23.310;2023-11-18T11:47:55;94511.94;;;3.63;90.55
16451;BME280;12243;42.708;23.310;2023-11-18T11:50:55;94502.22;;;3.53;90.53
16451;BME280;12243;42.708;23.310;2023-11-18T11:53:35;94496.25;;;3.53;90.67
16451;BME280;12243;42.708;23.310;2023-11-18T11:56:05;94494.81;;;3.62;91.06
16451;BME280;12243;42.708;23.310;2023-11-18T11:58:33;94508.88;;;3.70;90.62
16451;BME280;12243;42.708;23.310;2023-11-18T12:01:15;94496.13;;;3.81;90.06
16451;BME280;12243;42.708;23.310;2023-11-18T12:03:46;94504.97;;;3.77;89.77
16451;BME280;12243;42.708;23.310;2023-11-18T12:06:13;94501.25;;;3.81;90.33
16451;BME280;12243;42.708;23.310;2023-11-18T12:08:51;94502.28;;;3.79;90.47
16451;BME280;12243;42.708;23.310;2023-11-18T12:11:18;94514.22;;;3.67;89.39
16451;BME280;12243;42.708;23.310;2023-11-18T12:14:01;94504.84;;;3.66;90.12
16451;BME280;12243;42.708;23.310;2023-11-18T12:16:57;94514.22;;;3.67;90.49
16451;BME280;12243;42.708;23.310;2023-11-18T12:19:29;94510.06;;;3.65;91.45
16451;BME280;12243;42.708;23.310;2023-11-18T12:21:58;94517.66;;;3.80;90.46
16451;BME280;12243;42.708;23.310;2023-11-18T12:24:28;94515.03;;;3.68;90.41
16451;BME280;12243;42.708;23.310;2023-11-18T12:26:59;94512.34;;;3.69;90.28
16451;BME280;12243;42.708;23.310;2023-11-18T12:29:32;94520.19;;;3.68;90.79
16451;BME280;12243;42.708;23.310;2023-11-18T12:31:59;94498.41;;;3.59;91.42
16451;BME280;12243;42.708;23.310;2023-11-18T12:34:52;94526.94;;;3.56;91.51
16451;BME280;12243;42.708;23.310;2023-11-18T12:37:57;94508.53;;;3.62;91.83
16451;BME280;12243;42.708;23.310;2023-11-18T12:40:53;94516.25;;;3.62;91.33
16451;BME280;12243;42.708;23.310;2023-11-18T12:43:42;94523.16;;;3.62;91.57
16451;BME280;12243;42.708;23.310;2023-11-18T12:46:41;94525.28;;;3.55;91.64
16451;BME280;12243;42.708;23.310;2023-11-18T12:49:16;94516.94;;;3.51;92.08
16451;BME280;12243;42.708;23.310;2023-11-18T12:51:45;94528.41;;;3.60;91.31
16451;BME280;12243;42.708;23.310;2023-11-18T12:54:14;94538.28;;;3.53;91.63
16451;BME280;12243;42.708;23.310;2023-11-18T12:56:43;94533.75;;;3.57;91.85
16451;BME280;12243;42.708;23.310;2023-11-18T12:59:14;94527.59;;;3.72;92.04
16451;BME280;12243;42.708;23.310;2023-11-18T13:01:46;94534.25;;;3.89;91.46
16451;BME280;12243;42.708;23.310;2023-11-18T13:04:17;94529.59;;;3.81;91.05
16451;BME280;12243;42.708;23.310;2023-11-18T13:06:47;94532.16;;;3.81;90.86
16451;BME280;12243;42.708;23.310;2023-11-18T13:09:17;94540.59;;;3.71;91.52
16451;BME280;12243;42.708;23.310;2023-11-18T13:11:54;94540.78;;;3.68;92.20